createdAt,value
2019-05-16T00:02:13.279Z,100862.17
2019-05-16T00:07:19.225Z,100858.52
2019-05-16T00:12:20.799Z,100851.44
2019-05-16T00:17:22.885Z,100853.48
2019-05-16T00:22:24.898Z,100849.75
2019-05-16T00:27:28.094Z,100831.06
2019-05-16T00:32:30.205Z,100834.25
2019-05-16T00:37:32.133Z,100824.48
2019-05-16T00:48:03.197Z,100810.16
2019-05-16T00:53:05.238Z,100814.19
2019-05-16T00:58:08.791Z,100803.03
2019-05-16T01:03:12.581Z,100791.50
2019-05-16T01:08:14.644Z,100780.90
2019-05-16T01:13:18.548Z,100774.48
2019-05-16T01:18:20.805Z,100766.11
2019-05-16T01:23:22.835Z,100760.55
2019-05-16T01:28:24.876Z,100768.16
2019-05-16T01:33:28.090Z,100763.05
2019-05-16T01:38:30.384Z,100755.55
2019-05-16T01:43:32.516Z,100749.52
2019-05-16T01:48:34.704Z,100751.56
2019-05-16T01:53:39.483Z,100737.62
2019-05-16T01:58:43.538Z,100725.94
2019-05-16T02:03:47.961Z,100734.73
2019-05-16T02:08:49.726Z,100737.28
2019-05-16T02:13:51.676Z,100722.11
2019-05-16T02:18:53.692Z,100713.78
2019-05-16T02:23:58.407Z,100705.78
2019-05-16T02:29:00.901Z,100701.72
2019-05-16T02:34:05.073Z,100701.02
2019-05-16T02:39:10.892Z,100698.75
2019-05-16T02:44:12.121Z,100686.41
2019-05-16T02:49:14.229Z,100694.36
2019-05-16T02:54:16.177Z,100680.34
2019-05-16T02:59:20.649Z,100681.92
2019-05-16T03:04:23.137Z,100680.62
2019-05-16T03:09:25.463Z,100680.62
2019-05-16T03:14:31.521Z,100679.41
2019-05-16T03:19:35.805Z,100669.69
2019-05-16T03:24:37.736Z,100664.84
2019-05-16T03:29:41.742Z,100660.16
2019-05-16T03:34:44.665Z,100644.80
2019-05-16T03:39:46.741Z,100638.66
2019-05-16T03:44:51.271Z,100628.81
2019-05-16T03:49:52.636Z,100622.37
2019-05-16T03:54:54.563Z,100612.35
2019-05-16T04:00:00.573Z,100622.73
2019-05-16T04:05:02.927Z,100609.85
2019-05-16T04:10:05.700Z,100602.48
2019-05-16T04:15:11.259Z,100598.20
2019-05-16T04:20:13.226Z,100600.20
2019-05-16T04:25:15.254Z,100600.98
2019-05-16T04:30:17.854Z,100589.66
2019-05-16T04:35:21.452Z,100588.45
2019-05-16T04:40:24.979Z,100591.20
2019-05-16T04:45:27.405Z,100587.03
2019-05-16T04:50:31.126Z,100590.22
2019-05-16T04:55:33.351Z,100587.06
2019-05-16T05:00:35.601Z,100578.84
2019-05-16T05:05:37.606Z,100578.44
2019-05-16T05:10:42.647Z,100577.56
2019-05-16T05:15:44.701Z,100562.02
2019-05-16T05:20:47.451Z,100561.23
2019-05-16T05:25:51.256Z,100555.61
2019-05-16T05:30:53.313Z,100559.34
2019-05-16T05:35:55.367Z,100551.24
2019-05-16T05:40:57.325Z,100556.30
2019-05-16T05:46:00.634Z,100549.28
2019-05-16T05:51:03.093Z,100544.77
2019-05-16T05:56:05.334Z,100541.09
2019-05-16T06:01:07.463Z,100535.13
2019-05-16T06:06:10.488Z,100543.59
2019-05-16T06:11:12.879Z,100540.08
2019-05-16T06:16:14.819Z,100538.80
2019-05-16T06:21:20.105Z,100543.39
2019-05-16T06:26:21.268Z,100531.77
2019-05-16T06:31:23.301Z,100528.96
2019-05-16T06:36:25.216Z,100534.66
2019-05-16T06:41:27.293Z,100522.83
2019-05-16T06:46:30.718Z,100514.51
2019-05-16T06:51:32.832Z,100510.67
2019-05-16T06:56:34.759Z,100503.86
2019-05-16T07:01:36.755Z,100504.20
2019-05-16T07:06:54.778Z,100504.95
2019-05-16T07:11:43.220Z,100491.86
2019-05-16T07:16:45.415Z,100481.70
2019-05-16T07:21:47.461Z,100480.48
2019-05-16T07:26:50.910Z,100482.39
2019-05-16T07:31:52.861Z,100470.14
2019-05-16T07:36:54.931Z,100462.61
2019-05-16T07:41:57.083Z,100462.98
2019-05-16T07:47:00.948Z,100470.64
2019-05-16T07:52:03.925Z,100466.12
2019-05-16T07:57:16.174Z,100469.38
2019-05-16T08:02:10.992Z,100462.11
2019-05-16T08:07:13.577Z,100454.25
2019-05-16T08:12:15.720Z,100451.61
2019-05-16T08:17:21.439Z,100453.31
2019-05-16T08:22:22.670Z,100452.11
2019-05-16T08:27:24.909Z,100455.03
2019-05-16T08:32:27.096Z,100452.95
2019-05-16T08:37:38.425Z,100446.63
2019-05-16T08:42:33.068Z,100443.48
2019-05-16T08:47:35.254Z,100441.67
2019-05-16T08:52:37.432Z,100437.22
2019-05-16T08:57:40.931Z,100429.86
2019-05-16T09:02:43.335Z,100440.87
2019-05-16T09:07:45.292Z,100434.45
2019-05-16T09:12:47.846Z,100436.09
2019-05-16T09:17:50.393Z,100434.55
2019-05-16T09:22:52.355Z,100427.23
2019-05-16T09:27:56.957Z,100429.92
2019-05-16T09:32:58.890Z,100424.48
2019-05-16T09:38:00.998Z,100412.98
2019-05-16T09:43:03.072Z,100398.75
2019-05-16T09:48:07.999Z,100400.64
2019-05-16T09:53:09.216Z,100392.48
2019-05-16T09:58:11.347Z,100388.70
2019-05-16T10:03:13.435Z,100392.22
2019-05-16T10:08:17.277Z,100394.78
2019-05-16T10:13:19.529Z,100392.19
2019-05-16T10:18:22.692Z,100381.47
2019-05-16T10:23:24.666Z,100376.24
2019-05-16T10:28:27.632Z,100372.92
2019-05-16T10:33:29.989Z,100370.95
2019-05-16T10:38:32.019Z,100364.04
2019-05-16T10:43:34.089Z,100364.55
2019-05-16T10:48:37.575Z,100362.13
2019-05-16T10:54:04.573Z,100361.69
2019-05-16T10:59:04.927Z,100358.38
2019-05-16T11:03:49.263Z,100365.61
2019-05-16T11:08:51.340Z,100364.79
2019-05-16T11:13:53.271Z,100368.34
2019-05-16T11:18:55.250Z,100358.28
2019-05-16T11:23:57.693Z,100362.28
2019-05-16T11:28:59.641Z,100356.94
2019-05-16T11:34:01.611Z,100353.09
2019-05-16T11:39:08.209Z,100349.41
2019-05-16T11:44:09.419Z,100343.40
2019-05-16T11:49:11.441Z,100343.08
2019-05-16T11:54:13.428Z,100346.78
2019-05-16T11:59:16.010Z,100343.41
2019-05-16T12:04:18.003Z,100329.87
2019-05-16T12:09:20.047Z,100332.92
2019-05-16T12:14:22.027Z,100317.66
2019-05-16T12:19:33.478Z,100308.63
2019-05-16T12:24:36.468Z,100309.65
2019-05-16T12:29:32.022Z,100306.31
2019-05-16T12:34:34.070Z,100296.26
2019-05-16T12:39:37.944Z,100289.37
2019-05-16T12:44:40.212Z,100288.89
2019-05-16T12:49:42.180Z,100287.87
2019-05-16T12:54:44.245Z,100296.78
2019-05-16T12:59:51.929Z,100290.22
2019-05-16T13:04:50.336Z,100291.59
2019-05-16T13:09:52.428Z,100286.22
2019-05-16T13:14:54.527Z,100284.03
2019-05-16T13:19:57.609Z,100281.34
2019-05-16T13:25:00.247Z,100279.31
2019-05-16T13:30:02.609Z,100269.09
2019-05-16T13:35:07.433Z,100275.28
2019-05-16T13:40:09.120Z,100271.44
2019-05-16T13:45:11.314Z,100266.40
2019-05-16T13:50:16.666Z,100264.39
2019-05-16T13:55:18.959Z,100262.21
2019-05-16T14:00:21.318Z,100255.16
2019-05-16T14:05:23.352Z,100250.44
2019-05-16T14:10:29.278Z,100257.17
2019-05-16T14:15:29.385Z,100257.02
2019-05-16T14:20:31.447Z,100254.00
2019-05-16T14:25:33.625Z,100259.70
2019-05-16T14:30:37.274Z,100258.38
2019-05-16T14:35:39.523Z,100257.17
2019-05-16T14:40:42.182Z,100246.27
2019-05-16T14:45:46.504Z,100247.60
2019-05-16T14:50:48.249Z,100243.73
2019-05-16T14:55:50.225Z,100245.75
2019-05-16T15:00:52.317Z,100238.55
2019-05-16T15:05:58.245Z,100247.10
2019-05-16T15:10:58.253Z,100254.15
2019-05-16T15:16:00.293Z,100249.93
2019-05-16T15:21:02.481Z,100251.77
2019-05-16T15:26:08.997Z,100248.08
2019-05-16T15:31:08.791Z,100245.73
2019-05-16T15:36:10.897Z,100231.95
2019-05-16T15:41:12.952Z,100243.84
2019-05-16T15:46:17.198Z,100231.38
2019-05-16T15:51:21.414Z,100230.73
2019-05-16T15:56:26.929Z,100231.07
2019-05-16T16:01:28.506Z,100229.23
2019-05-16T16:06:30.618Z,100222.31
2019-05-16T16:11:32.692Z,100209.27
2019-05-16T16:16:34.657Z,100209.75
2019-05-16T16:21:38.024Z,100212.09
2019-05-16T16:26:40.316Z,100209.01
2019-05-16T16:31:42.303Z,100201.09
2019-05-16T16:36:44.401Z,100206.58
2019-05-16T16:41:47.775Z,100199.53
2019-05-16T16:46:50.102Z,100205.88
2019-05-16T16:51:52.264Z,100207.71
2019-05-16T16:56:54.276Z,100212.39
2019-05-16T17:01:57.215Z,100216.39
2019-05-16T17:06:59.265Z,100221.10
2019-05-16T17:12:02.474Z,100220.30
2019-05-16T17:17:06.858Z,100232.08
2019-05-16T17:22:17.218Z,100225.52
2019-05-16T17:27:13.451Z,100222.80
2019-05-16T17:32:16.802Z,100226.83
2019-05-16T17:37:18.997Z,100224.66
2019-05-16T17:42:21.188Z,100228.88
2019-05-16T17:47:26.184Z,100220.11
2019-05-16T17:52:28.007Z,100227.67
2019-05-16T17:57:30.185Z,100225.11
2019-05-16T18:02:32.326Z,100215.20
2019-05-16T18:07:36.398Z,100215.20
2019-05-16T18:12:39.396Z,100222.29
2019-05-16T18:17:41.403Z,100211.69
2019-05-16T18:22:47.208Z,100223.84
2019-05-16T18:27:49.266Z,100223.84
2019-05-16T18:32:51.306Z,100227.40
2019-05-16T18:37:53.311Z,100220.19
2019-05-16T18:42:57.068Z,100220.19
2019-05-16T18:47:59.149Z,100221.53
2019-05-16T18:53:01.145Z,100227.09
2019-05-16T18:58:08.325Z,100225.91
2019-05-16T19:03:10.401Z,100220.88
2019-05-16T19:08:12.482Z,100220.88
2019-05-16T19:13:16.720Z,100239.52
2019-05-16T19:18:18.850Z,100231.94
2019-05-16T19:23:20.926Z,100234.45
2019-05-16T19:28:22.919Z,100232.77
2019-05-16T19:33:24.982Z,100242.38
2019-05-16T19:38:29.292Z,100231.29
2019-05-16T19:43:31.113Z,100236.83
2019-05-16T19:48:33.108Z,100230.16
2019-05-16T19:53:36.443Z,100241.44
2019-05-16T19:58:38.705Z,100242.30
2019-05-16T20:03:40.914Z,100236.58
2019-05-16T20:08:42.934Z,100231.88
2019-05-16T20:13:47.256Z,100234.19
2019-05-16T20:18:49.002Z,100231.99
2019-05-16T20:23:51.519Z,100233.84
2019-05-16T20:28:56.822Z,100234.84
2019-05-16T20:33:58.434Z,100225.12
2019-05-16T20:39:00.523Z,100222.95
2019-05-16T20:44:02.771Z,100224.45
2019-05-16T20:49:07.550Z,100230.36
2019-05-16T20:54:08.862Z,100233.08
2019-05-16T20:59:11.085Z,100225.48
2019-05-16T21:04:13.229Z,100219.98
2019-05-16T21:09:16.945Z,100217.47
2019-05-16T21:14:19.498Z,100218.14
2019-05-16T21:19:21.807Z,100212.25
2019-05-16T21:24:24.009Z,100203.69
2019-05-16T21:29:27.721Z,100208.77
2019-05-16T21:34:29.883Z,100205.78
2019-05-16T21:39:31.982Z,100201.58
2019-05-16T21:44:37.251Z,100195.56
2019-05-16T21:49:41.033Z,100197.73
2019-05-16T21:54:43.240Z,100191.38
2019-05-16T21:59:47.632Z,100188.54
2019-05-16T22:04:51.226Z,100186.02
2019-05-16T22:09:53.410Z,100180.16
2019-05-16T22:14:57.475Z,100183.19
2019-05-16T22:19:59.585Z,100182.83
2019-05-16T22:25:01.858Z,100182.17
2019-05-16T22:30:08.090Z,100189.22
2019-05-16T22:35:10.578Z,100178.47
2019-05-16T22:40:17.045Z,100186.84
2019-05-16T22:45:20.169Z,100186.84
2019-05-16T22:50:22.318Z,100182.13
2019-05-16T22:55:26.483Z,100176.41
2019-05-16T23:00:30.441Z,100186.63
2019-05-16T23:05:32.647Z,100188.77
2019-05-16T23:10:36.777Z,100191.95
2019-05-16T23:15:40.692Z,100186.07
2019-05-16T23:20:42.661Z,100183.86
2019-05-16T23:25:46.169Z,100185.38
2019-05-16T23:30:48.486Z,100179.19
2019-05-16T23:35:50.467Z,100174.48
2019-05-16T23:40:52.442Z,100170.46
2019-05-16T23:45:56.390Z,100156.91
2019-05-16T23:50:58.452Z,100165.28
2019-05-16T23:56:00.412Z,100156.08
